createdAt,value
2022-08-31T00:00:30.059Z,20.84
2022-08-31T00:03:17.121Z,20.74
2022-08-31T00:05:45.576Z,20.81
2022-08-31T00:08:13.953Z,20.74
2022-08-31T00:10:46.097Z,20.74
2022-08-31T00:13:14.374Z,20.70
2022-08-31T00:15:43.715Z,20.72
2022-08-31T00:18:13.279Z,20.67
2022-08-31T00:20:41.812Z,20.49
2022-08-31T00:23:12.329Z,20.31
2022-08-31T00:25:42.710Z,20.14
2022-08-31T00:28:11.974Z,20.03
2022-08-31T00:30:41.770Z,19.65
2022-08-31T00:33:11.599Z,19.62
2022-08-31T00:35:42.720Z,19.17
2022-08-31T00:38:12.427Z,19.11
2022-08-31T00:40:44.758Z,18.94
2022-08-31T00:43:14.084Z,18.85
2022-08-31T00:45:42.295Z,18.80
2022-08-31T00:48:10.530Z,18.68
2022-08-31T00:50:40.039Z,18.30
2022-08-31T00:53:08.371Z,18.38
2022-08-31T00:55:38.124Z,18.35
2022-08-31T00:58:13.005Z,18.32
2022-08-31T01:00:43.154Z,18.32
2022-08-31T01:03:12.075Z,18.25
2022-08-31T01:05:41.811Z,18.23
2022-08-31T01:08:10.417Z,18.15
2022-08-31T01:10:43.845Z,18.11
2022-08-31T01:13:13.537Z,18.02
2022-08-31T01:15:47.381Z,17.89
2022-08-31T01:18:21.010Z,17.79
2022-08-31T01:20:59.177Z,17.65
2022-08-31T01:23:33.404Z,17.75
2022-08-31T01:26:04.087Z,17.67
2022-08-31T01:28:32.279Z,17.57
2022-08-31T01:31:17.622Z,17.47
2022-08-31T01:33:45.700Z,17.46
2022-08-31T01:36:16.227Z,17.48
2022-08-31T01:38:46.729Z,17.50
2022-08-31T01:41:20.905Z,17.48
2022-08-31T01:43:49.018Z,17.46
2022-08-31T01:46:17.439Z,17.47
2022-08-31T01:48:46.810Z,17.46
2022-08-31T01:51:16.754Z,17.46
2022-08-31T01:53:48.761Z,17.44
2022-08-31T01:56:19.962Z,17.41
2022-08-31T01:58:48.005Z,17.41
2022-08-31T02:01:37.130Z,17.35
2022-08-31T02:04:08.415Z,17.40
2022-08-31T02:06:36.871Z,17.36
2022-08-31T02:09:08.027Z,17.39
2022-08-31T02:11:37.687Z,17.37
2022-08-31T02:14:06.578Z,17.33
2022-08-31T02:16:34.658Z,17.33
2022-08-31T02:19:02.715Z,17.38
2022-08-31T02:21:30.878Z,17.36
2022-08-31T02:23:59.008Z,17.34
2022-08-31T02:26:28.551Z,17.38
2022-08-31T02:28:56.550Z,17.33
2022-08-31T02:31:24.583Z,17.33
2022-08-31T02:33:58.767Z,17.35
2022-08-31T02:36:27.261Z,17.32
2022-08-31T02:38:56.126Z,17.30
2022-08-31T02:41:25.542Z,17.30
2022-08-31T02:43:55.078Z,17.29
2022-08-31T02:46:23.285Z,17.30
2022-08-31T02:49:10.514Z,17.27
2022-08-31T02:51:40.898Z,17.28
2022-08-31T02:54:08.903Z,17.31
2022-08-31T02:56:36.886Z,17.30
2022-08-31T02:59:06.728Z,17.27
2022-08-31T03:01:36.184Z,17.27
2022-08-31T03:04:05.276Z,17.27
2022-08-31T03:06:33.285Z,17.26
2022-08-31T03:09:02.662Z,17.23
2022-08-31T03:11:30.809Z,17.25
2022-08-31T03:13:59.076Z,17.25
2022-08-31T03:16:28.651Z,17.24
2022-08-31T03:18:56.733Z,17.20
2022-08-31T03:21:24.791Z,17.20
2022-08-31T03:23:52.768Z,17.23
2022-08-31T03:26:21.747Z,17.16
2022-08-31T03:28:49.803Z,17.18
2022-08-31T03:31:39.648Z,17.19
2022-08-31T03:34:07.875Z,17.20
2022-08-31T03:36:36.813Z,17.14
2022-08-31T03:39:05.376Z,17.18
2022-08-31T03:41:33.483Z,17.18
2022-08-31T03:44:02.774Z,17.19
2022-08-31T03:46:33.698Z,17.16
2022-08-31T03:49:04.691Z,17.16
2022-08-31T03:51:34.404Z,17.13
2022-08-31T03:54:03.367Z,17.12
2022-08-31T03:56:33.759Z,17.11
2022-08-31T03:59:01.775Z,17.16
2022-08-31T04:01:48.374Z,17.14
2022-08-31T04:04:36.209Z,17.08
2022-08-31T04:07:23.145Z,17.11
2022-08-31T04:10:29.050Z,17.10
2022-08-31T04:13:29.462Z,17.09
2022-08-31T04:16:27.946Z,17.07
2022-08-31T04:19:16.053Z,17.05
2022-08-31T04:21:57.316Z,17.03
2022-08-31T04:24:25.991Z,17.04
2022-08-31T04:26:54.485Z,17.05
2022-08-31T04:29:23.638Z,17.02
2022-08-31T04:31:51.646Z,17.03
2022-08-31T04:34:19.726Z,17.02
2022-08-31T04:36:48.262Z,17.03
2022-08-31T04:39:18.845Z,17.03
2022-08-31T04:41:47.607Z,17.01
2022-08-31T04:44:19.945Z,16.98
2022-08-31T04:46:52.986Z,16.99
2022-08-31T04:49:21.020Z,16.99
2022-08-31T04:51:49.464Z,16.97
2022-08-31T04:54:18.846Z,16.98
2022-08-31T04:56:46.946Z,16.96
2022-08-31T04:59:27.247Z,16.97
2022-08-31T05:02:27.430Z,16.89
2022-08-31T05:05:04.250Z,16.89
2022-08-31T05:07:32.216Z,16.85
2022-08-31T05:10:02.318Z,16.89
2022-08-31T05:12:32.120Z,16.80
2022-08-31T05:15:00.350Z,16.85
2022-08-31T05:17:29.588Z,16.86
2022-08-31T05:19:58.023Z,16.78
2022-08-31T05:22:25.994Z,16.84
2022-08-31T05:24:55.918Z,16.91
2022-08-31T05:27:25.330Z,16.92
2022-08-31T05:29:53.279Z,16.91
2022-08-31T05:32:53.309Z,16.93
2022-08-31T05:35:21.309Z,16.91
2022-08-31T05:37:51.543Z,16.81
2022-08-31T05:40:21.088Z,16.86
2022-08-31T05:42:50.806Z,16.89
2022-08-31T05:45:19.210Z,16.88
2022-08-31T05:47:48.754Z,16.90
2022-08-31T05:50:18.583Z,16.84
2022-08-31T05:52:46.982Z,16.84
2022-08-31T05:55:15.362Z,16.88
2022-08-31T05:57:43.351Z,16.88
2022-08-31T06:00:13.675Z,16.86
2022-08-31T06:02:45.682Z,16.87
2022-08-31T06:05:15.135Z,16.89
2022-08-31T06:07:45.830Z,16.91
2022-08-31T06:10:15.608Z,16.89
2022-08-31T06:12:47.365Z,16.88
2022-08-31T06:15:19.219Z,16.85
2022-08-31T06:17:47.163Z,16.82
2022-08-31T06:20:18.042Z,16.83
2022-08-31T06:22:47.964Z,16.83
2022-08-31T06:25:25.927Z,16.82
2022-08-31T06:27:55.179Z,16.79
2022-08-31T06:30:27.260Z,16.87
2022-08-31T06:32:58.632Z,16.88
2022-08-31T06:35:40.177Z,16.79
2022-08-31T06:38:26.862Z,16.82
2022-08-31T06:41:16.504Z,16.79
2022-08-31T06:44:06.756Z,16.79
2022-08-31T06:47:15.470Z,16.73
2022-08-31T06:49:43.426Z,16.74
2022-08-31T06:52:11.447Z,16.77
2022-08-31T06:54:42.348Z,16.77
2022-08-31T06:57:28.939Z,16.77
2022-08-31T07:00:17.663Z,16.79
2022-08-31T07:02:54.733Z,16.70
2022-08-31T07:05:25.571Z,16.76
2022-08-31T07:07:54.760Z,16.70
2022-08-31T07:10:22.818Z,16.76
2022-08-31T07:12:50.827Z,16.77
2022-08-31T07:15:18.868Z,16.78
2022-08-31T07:17:48.054Z,16.78
2022-08-31T07:20:17.799Z,16.80
2022-08-31T07:22:46.079Z,16.84
2022-08-31T07:25:39.188Z,16.86
2022-08-31T07:28:07.445Z,16.89
2022-08-31T07:30:38.206Z,16.86
2022-08-31T07:33:06.726Z,16.92
2022-08-31T07:35:38.363Z,16.89
2022-08-31T07:38:43.982Z,16.87
2022-08-31T07:41:29.810Z,16.87
2022-08-31T07:43:59.525Z,16.95
2022-08-31T07:46:31.513Z,16.95
2022-08-31T07:49:00.780Z,16.96
2022-08-31T07:51:51.026Z,16.99
2022-08-31T07:54:40.942Z,17.01
2022-08-31T07:57:22.063Z,17.00
2022-08-31T07:59:55.735Z,17.05
2022-08-31T08:02:24.560Z,17.03
2022-08-31T08:04:54.088Z,17.08
2022-08-31T08:07:54.627Z,17.10
2022-08-31T08:10:55.048Z,17.09
2022-08-31T08:13:38.813Z,17.10
2022-08-31T08:16:17.660Z,17.14
2022-08-31T08:18:51.272Z,17.14
2022-08-31T08:21:24.507Z,17.20
2022-08-31T08:23:55.119Z,17.22
2022-08-31T08:26:44.378Z,17.27
2022-08-31T08:29:49.031Z,17.25
2022-08-31T08:32:22.912Z,17.27
2022-08-31T08:34:51.618Z,17.26
2022-08-31T08:37:35.677Z,17.29
2022-08-31T08:40:22.973Z,17.28
2022-08-31T08:42:51.292Z,17.35
2022-08-31T08:45:19.542Z,17.39
2022-08-31T08:47:49.948Z,17.45
2022-08-31T08:50:18.971Z,17.50
2022-08-31T08:52:48.618Z,17.48
2022-08-31T08:55:23.030Z,17.54
2022-08-31T08:57:56.194Z,17.49
2022-08-31T09:00:26.866Z,17.60
2022-08-31T09:03:01.231Z,17.54
2022-08-31T09:06:09.612Z,17.58
2022-08-31T09:09:08.390Z,17.60
2022-08-31T09:11:55.024Z,17.64
2022-08-31T09:14:36.823Z,17.61
2022-08-31T09:17:16.312Z,17.69
2022-08-31T09:20:00.508Z,17.72
2022-08-31T09:22:33.291Z,17.77
2022-08-31T09:25:04.311Z,17.75
2022-08-31T09:27:58.155Z,17.83
2022-08-31T09:30:41.215Z,17.82
2022-08-31T09:33:18.657Z,17.90
2022-08-31T09:35:48.104Z,17.85
2022-08-31T09:38:29.415Z,17.84
2022-08-31T09:40:57.765Z,17.88
2022-08-31T09:43:35.172Z,17.96
2022-08-31T09:46:08.355Z,17.94
2022-08-31T09:48:43.592Z,17.87
2022-08-31T09:51:21.499Z,17.86
2022-08-31T09:54:07.709Z,17.82
2022-08-31T09:56:57.818Z,17.83
2022-08-31T09:59:42.154Z,17.87
2022-08-31T10:02:28.946Z,17.90
2022-08-31T10:05:01.635Z,17.80
2022-08-31T10:07:43.326Z,17.87
2022-08-31T10:10:28.142Z,17.95
2022-08-31T10:13:05.354Z,17.92
2022-08-31T10:15:43.549Z,17.94
2022-08-31T10:18:16.410Z,17.88
2022-08-31T10:20:51.725Z,17.86
2022-08-31T10:23:27.217Z,17.91
2022-08-31T10:26:00.005Z,17.86
2022-08-31T10:28:36.682Z,17.89
2022-08-31T10:31:09.653Z,17.90
2022-08-31T10:34:01.114Z,17.95
2022-08-31T10:36:36.716Z,17.94
2022-08-31T10:39:13.577Z,17.94
2022-08-31T10:41:49.489Z,17.98
2022-08-31T10:44:24.189Z,18.01
2022-08-31T10:47:01.222Z,17.98
2022-08-31T10:49:29.849Z,18.01
2022-08-31T10:52:03.266Z,17.97
2022-08-31T10:54:43.067Z,18.03
2022-08-31T10:57:26.068Z,18.08
2022-08-31T11:00:03.107Z,18.04
2022-08-31T11:02:55.431Z,18.11
2022-08-31T11:05:32.588Z,18.07
2022-08-31T11:08:27.078Z,18.15
2022-08-31T11:10:57.284Z,18.22
2022-08-31T11:13:48.648Z,18.26
2022-08-31T11:16:36.724Z,18.26
2022-08-31T11:19:42.696Z,18.28
2022-08-31T11:22:37.696Z,18.26
2022-08-31T11:25:24.918Z,18.30
2022-08-31T11:28:01.448Z,18.31
2022-08-31T11:30:32.773Z,18.34
2022-08-31T11:33:05.802Z,18.33
2022-08-31T11:36:05.425Z,18.22
2022-08-31T11:38:54.602Z,18.32
2022-08-31T11:41:39.094Z,18.28
2022-08-31T11:44:08.857Z,18.27
2022-08-31T11:46:45.938Z,18.21
2022-08-31T11:49:47.074Z,18.34
2022-08-31T11:52:32.744Z,18.43
2022-08-31T11:55:08.889Z,18.44
2022-08-31T11:58:10.131Z,18.50
2022-08-31T12:00:52.474Z,18.53
2022-08-31T12:03:46.188Z,18.59
2022-08-31T12:06:48.329Z,18.61
2022-08-31T12:09:39.928Z,18.61
2022-08-31T12:12:21.700Z,18.64
2022-08-31T12:14:56.811Z,18.68
2022-08-31T12:17:33.964Z,18.78
2022-08-31T12:20:09.174Z,18.76
2022-08-31T12:23:30.229Z,18.86
2022-08-31T12:26:11.680Z,19.00
2022-08-31T12:28:56.011Z,19.04
2022-08-31T12:31:24.325Z,19.07
2022-08-31T12:33:58.979Z,19.17
2022-08-31T12:36:30.525Z,19.30
2022-08-31T12:39:10.798Z,19.39
2022-08-31T12:41:44.622Z,19.49
2022-08-31T12:44:14.096Z,19.28
2022-08-31T12:47:02.260Z,19.43
2022-08-31T12:49:59.548Z,19.51
2022-08-31T12:52:43.382Z,19.58
2022-08-31T12:55:25.551Z,19.56
2022-08-31T12:58:21.715Z,19.62
2022-08-31T13:00:49.887Z,19.52
2022-08-31T13:03:22.624Z,19.51
2022-08-31T13:06:05.676Z,19.50
2022-08-31T13:08:38.224Z,19.43
2022-08-31T13:11:22.930Z,19.44
2022-08-31T13:13:53.835Z,19.47
2022-08-31T13:16:23.442Z,19.35
2022-08-31T13:19:02.967Z,19.44
2022-08-31T13:21:31.656Z,19.40
2022-08-31T13:24:07.417Z,19.41
2022-08-31T13:26:38.540Z,19.40
2022-08-31T13:29:10.198Z,19.47
2022-08-31T13:31:51.453Z,19.43
2022-08-31T13:34:23.563Z,19.54
2022-08-31T13:36:55.095Z,19.61
2022-08-31T13:39:26.886Z,19.58
2022-08-31T13:41:58.719Z,19.63
2022-08-31T13:44:33.788Z,19.70
2022-08-31T13:47:06.056Z,19.74
2022-08-31T13:49:38.014Z,19.75
2022-08-31T13:52:14.878Z,19.72
2022-08-31T13:54:43.592Z,19.59
2022-08-31T13:57:19.666Z,19.50
2022-08-31T13:59:50.018Z,19.72
2022-08-31T14:02:36.773Z,19.91
2022-08-31T14:05:10.052Z,19.92
2022-08-31T14:07:56.882Z,20.05
2022-08-31T14:10:27.366Z,19.95
2022-08-31T14:12:57.904Z,19.96
2022-08-31T14:15:37.168Z,20.04
2022-08-31T14:18:26.732Z,20.01
2022-08-31T14:21:21.799Z,20.00
2022-08-31T14:23:53.301Z,19.98
2022-08-31T14:26:26.483Z,19.99
2022-08-31T14:28:56.871Z,19.95
2022-08-31T14:31:29.129Z,19.98
2022-08-31T14:34:20.266Z,20.04
2022-08-31T14:36:52.762Z,20.01
2022-08-31T14:39:23.128Z,20.04
2022-08-31T14:41:51.928Z,20.02
2022-08-31T14:44:22.755Z,20.17
2022-08-31T14:46:52.408Z,20.22
2022-08-31T14:49:20.666Z,20.28
2022-08-31T14:51:48.732Z,20.21
2022-08-31T14:54:17.977Z,20.28
2022-08-31T14:56:50.150Z,20.33
2022-08-31T14:59:21.190Z,20.37
2022-08-31T15:01:50.923Z,20.43
2022-08-31T15:04:21.812Z,20.49
2022-08-31T15:06:54.917Z,20.46
2022-08-31T15:09:23.006Z,20.45
2022-08-31T15:11:51.455Z,20.47
2022-08-31T15:14:19.523Z,20.42
2022-08-31T15:16:50.900Z,20.37
2022-08-31T15:19:23.132Z,20.26
2022-08-31T15:22:02.717Z,20.20
2022-08-31T15:24:31.603Z,20.13
2022-08-31T15:27:00.055Z,20.17
2022-08-31T15:29:30.451Z,20.22
2022-08-31T15:31:59.909Z,20.25
2022-08-31T15:34:31.577Z,20.27
2022-08-31T15:37:02.400Z,20.22
2022-08-31T15:39:35.044Z,20.29
2022-08-31T15:42:09.187Z,20.33
2022-08-31T15:44:37.459Z,20.27
2022-08-31T15:47:24.506Z,20.45
2022-08-31T15:49:55.963Z,20.52
2022-08-31T15:52:27.805Z,20.61
2022-08-31T15:54:57.086Z,20.62
2022-08-31T15:57:25.174Z,20.65
2022-08-31T15:59:53.209Z,20.68
2022-08-31T16:02:21.343Z,20.77
2022-08-31T16:04:51.353Z,20.84
2022-08-31T16:07:23.127Z,20.90
2022-08-31T16:09:51.245Z,20.92
2022-08-31T16:12:21.250Z,20.94
2022-08-31T16:14:51.723Z,20.93
2022-08-31T16:17:20.256Z,20.87
2022-08-31T16:19:48.720Z,20.80
2022-08-31T16:22:18.091Z,20.72
2022-08-31T16:24:50.034Z,20.59
2022-08-31T16:27:20.555Z,20.49
2022-08-31T16:29:50.919Z,20.43
2022-08-31T16:32:19.507Z,20.35
2022-08-31T16:34:47.643Z,20.27
2022-08-31T16:37:15.742Z,20.26
2022-08-31T16:39:47.069Z,20.15
2022-08-31T16:42:17.602Z,20.15
2022-08-31T16:44:48.074Z,20.13
2022-08-31T16:47:18.719Z,20.08
2022-08-31T16:49:46.819Z,20.06
2022-08-31T16:52:18.230Z,20.05
2022-08-31T16:54:48.581Z,20.02
2022-08-31T16:57:20.809Z,19.98
2022-08-31T16:59:50.517Z,19.91
2022-08-31T17:02:20.635Z,19.87
2022-08-31T17:04:52.579Z,19.82
2022-08-31T17:07:21.345Z,19.77
2022-08-31T17:09:49.719Z,19.72
2022-08-31T17:12:22.076Z,19.70
2022-08-31T17:14:52.757Z,19.70
2022-08-31T17:17:23.379Z,19.70
2022-08-31T17:19:53.202Z,19.65
2022-08-31T17:22:29.964Z,19.59
2022-08-31T17:25:03.017Z,19.54
2022-08-31T17:27:34.196Z,19.54
2022-08-31T17:30:05.906Z,19.49
2022-08-31T17:32:37.245Z,19.44
2022-08-31T17:35:08.997Z,19.40
2022-08-31T17:37:37.125Z,19.37
2022-08-31T17:40:08.128Z,19.33
2022-08-31T17:42:38.056Z,19.29
2022-08-31T17:45:06.698Z,19.22
2022-08-31T17:47:36.107Z,19.22
2022-08-31T17:50:05.156Z,19.15
2022-08-31T17:52:33.367Z,19.09
2022-08-31T17:55:01.946Z,19.07
2022-08-31T17:57:30.377Z,19.10
2022-08-31T17:59:59.894Z,19.05
2022-08-31T18:02:34.633Z,19.01
2022-08-31T18:05:03.502Z,18.95
2022-08-31T18:07:37.937Z,18.96
2022-08-31T18:10:06.875Z,18.88
2022-08-31T18:12:40.954Z,18.79
2022-08-31T18:15:12.250Z,18.69
2022-08-31T18:17:40.668Z,18.72
2022-08-31T18:20:11.887Z,18.70
2022-08-31T18:22:40.197Z,18.64
2022-08-31T18:25:09.100Z,18.56
2022-08-31T18:27:37.332Z,18.57
2022-08-31T18:30:06.497Z,18.52
2022-08-31T18:32:36.307Z,18.50
2022-08-31T18:35:10.389Z,18.46
2022-08-31T18:37:38.489Z,18.37
2022-08-31T18:40:25.395Z,18.38
2022-08-31T18:43:11.222Z,18.27
2022-08-31T18:45:39.875Z,18.23
2022-08-31T18:48:26.046Z,18.21
2022-08-31T18:50:55.271Z,18.15
2022-08-31T18:53:26.843Z,18.16
2022-08-31T18:55:58.006Z,18.11
2022-08-31T18:58:28.786Z,18.07
2022-08-31T19:00:59.131Z,18.03
2022-08-31T19:03:30.205Z,18.01
2022-08-31T19:05:58.839Z,18.03
2022-08-31T19:08:27.280Z,17.96
2022-08-31T19:10:59.001Z,17.93
2022-08-31T19:13:29.880Z,17.91
2022-08-31T19:16:02.117Z,17.92
2022-08-31T19:18:36.421Z,17.81
2022-08-31T19:21:17.426Z,17.84
2022-08-31T19:23:46.172Z,17.80
2022-08-31T19:26:21.065Z,17.80
2022-08-31T19:28:50.295Z,17.74
2022-08-31T19:31:20.860Z,17.77
2022-08-31T19:33:56.517Z,17.72
2022-08-31T19:36:27.306Z,17.72
2022-08-31T19:38:56.745Z,17.69
2022-08-31T19:41:27.330Z,17.64
2022-08-31T19:44:07.322Z,17.68
2022-08-31T19:46:37.909Z,17.63
2022-08-31T19:49:09.617Z,17.60
2022-08-31T19:51:39.363Z,17.54
2022-08-31T19:54:09.046Z,17.55
2022-08-31T19:56:39.709Z,17.55
2022-08-31T19:59:08.608Z,17.50
2022-08-31T20:01:36.842Z,17.48
2022-08-31T20:04:16.346Z,17.52
2022-08-31T20:06:46.448Z,17.51
2022-08-31T20:09:15.036Z,17.51
2022-08-31T20:11:43.897Z,17.47
2022-08-31T20:14:13.291Z,17.36
2022-08-31T20:16:43.100Z,17.32
2022-08-31T20:19:19.028Z,17.28
2022-08-31T20:21:52.993Z,17.22
2022-08-31T20:24:24.430Z,17.16
2022-08-31T20:26:55.427Z,17.11
2022-08-31T20:29:25.281Z,17.08
2022-08-31T20:31:55.327Z,17.03
2022-08-31T20:34:28.117Z,16.96
2022-08-31T20:37:01.094Z,16.95
2022-08-31T20:39:31.231Z,16.93
2022-08-31T20:42:00.461Z,16.89
2022-08-31T20:44:30.869Z,16.87
2022-08-31T20:47:18.804Z,16.84
2022-08-31T20:49:53.671Z,16.80
2022-08-31T20:52:23.675Z,16.76
2022-08-31T20:55:01.402Z,16.69
2022-08-31T20:57:31.002Z,16.67
2022-08-31T21:00:00.527Z,16.64
2022-08-31T21:02:31.153Z,16.60
2022-08-31T21:05:26.726Z,16.61
2022-08-31T21:07:50.332Z,16.56
2022-08-31T21:10:27.759Z,16.56
2022-08-31T21:13:10.973Z,16.52
2022-08-31T21:15:44.719Z,16.48
2022-08-31T21:18:15.915Z,16.45
2022-08-31T21:20:46.157Z,16.42
2022-08-31T21:23:14.263Z,16.35
2022-08-31T21:25:44.957Z,16.33
2022-08-31T21:28:15.647Z,16.34
2022-08-31T21:30:46.683Z,16.29
2022-08-31T21:33:14.782Z,16.25
2022-08-31T21:35:42.827Z,16.21
2022-08-31T21:38:13.006Z,16.16
2022-08-31T21:40:48.489Z,16.08
2022-08-31T21:43:16.713Z,16.08
2022-08-31T21:45:44.800Z,16.11
2022-08-31T21:48:13.196Z,16.08
2022-08-31T21:50:41.594Z,16.04
2022-08-31T21:53:10.047Z,16.06
2022-08-31T21:55:40.208Z,16.05
2022-08-31T21:58:09.584Z,16.04
2022-08-31T22:00:42.150Z,15.97
2022-08-31T22:03:10.496Z,15.98
2022-08-31T22:05:41.697Z,15.91
2022-08-31T22:08:09.857Z,15.89
2022-08-31T22:10:42.052Z,15.91
2022-08-31T22:13:12.232Z,15.85
2022-08-31T22:15:41.088Z,15.82
2022-08-31T22:18:58.189Z,15.83
2022-08-31T22:20:59.510Z,15.75
2022-08-31T22:23:27.749Z,15.73
2022-08-31T22:25:57.375Z,15.73
2022-08-31T22:28:27.593Z,15.73
2022-08-31T22:30:56.989Z,15.70
2022-08-31T22:33:25.371Z,15.65
2022-08-31T22:35:53.636Z,15.56
2022-08-31T22:38:21.879Z,15.67
2022-08-31T22:40:50.962Z,15.55
2022-08-31T22:43:20.544Z,15.56
2022-08-31T22:45:49.543Z,15.53
2022-08-31T22:48:18.198Z,15.52
2022-08-31T22:50:46.496Z,15.52
2022-08-31T22:53:14.876Z,15.43
2022-08-31T22:55:43.175Z,15.42
2022-08-31T22:58:12.643Z,15.38
2022-08-31T23:00:47.956Z,15.36
2022-08-31T23:03:16.690Z,15.37
2022-08-31T23:05:45.140Z,15.32
2022-08-31T23:08:14.053Z,15.27
2022-08-31T23:10:43.012Z,15.29
2022-08-31T23:13:11.206Z,15.31
2022-08-31T23:15:40.244Z,15.28
2022-08-31T23:18:10.585Z,15.20
2022-08-31T23:20:41.962Z,15.19
2022-08-31T23:23:10.533Z,15.18
2022-08-31T23:25:40.675Z,15.25
2022-08-31T23:28:09.535Z,15.16
2022-08-31T23:30:38.280Z,15.15
2022-08-31T23:33:07.490Z,15.09
2022-08-31T23:35:37.284Z,15.10
2022-08-31T23:38:05.400Z,15.02
2022-08-31T23:40:34.328Z,15.00
2022-08-31T23:43:02.526Z,14.99
2022-08-31T23:45:32.025Z,15.02
2022-08-31T23:48:00.134Z,14.95
2022-08-31T23:50:28.117Z,14.98
2022-08-31T23:52:57.575Z,14.95
2022-08-31T23:55:31.277Z,14.86
2022-08-31T23:57:59.376Z,14.88
